createdAt,value
2016-11-28T00:00:01.719Z,0
2016-11-28T00:01:01.941Z,0
2016-11-28T00:02:01.057Z,0
2016-11-28T00:03:00.717Z,0
2016-11-28T00:04:01.064Z,0
2016-11-28T00:05:00.882Z,0
2016-11-28T00:06:00.794Z,0
2016-11-28T00:07:01.474Z,0
2016-11-28T00:08:01.093Z,0
2016-11-28T00:09:00.907Z,0
2016-11-28T00:10:02.703Z,0
2016-11-28T00:11:01.687Z,0
2016-11-28T00:12:00.630Z,0
2016-11-28T00:13:00.527Z,0
2016-11-28T00:14:01.414Z,0
2016-11-28T00:15:01.589Z,0
2016-11-28T00:16:00.610Z,0
2016-11-28T00:17:01.017Z,0
2016-11-28T00:18:00.073Z,0
2016-11-28T00:19:00.360Z,0
2016-11-28T00:20:00.327Z,0
2016-11-28T00:21:01.463Z,0
2016-11-28T00:22:01.019Z,0
2016-11-28T00:23:01.035Z,0
2016-11-28T00:24:01.546Z,0
2016-11-28T00:25:00.885Z,0
2016-11-28T00:26:00.959Z,0
2016-11-28T00:27:00.749Z,0
2016-11-28T00:28:00.522Z,0
2016-11-28T00:29:00.466Z,0
2016-11-28T00:30:00.529Z,0
2016-11-28T00:31:00.406Z,0
2016-11-28T00:32:00.766Z,0
2016-11-28T00:33:00.316Z,0
2016-11-28T00:34:01.276Z,0
2016-11-28T00:35:00.179Z,0
2016-11-28T00:36:00.567Z,0
2016-11-28T00:37:00.231Z,0
2016-11-28T00:38:00.722Z,0
2016-11-28T00:39:02.207Z,0
2016-11-28T00:40:00.918Z,0
2016-11-28T00:41:01.657Z,0
2016-11-28T00:42:01.856Z,0
2016-11-28T00:43:00.672Z,0
2016-11-28T00:44:01.363Z,0
2016-11-28T00:45:00.748Z,0
2016-11-28T00:46:00.735Z,0
2016-11-28T00:47:00.816Z,0
2016-11-28T00:48:00.279Z,0
2016-11-28T00:49:01.377Z,0
2016-11-28T00:50:01.353Z,0
2016-11-28T00:51:00.839Z,0
2016-11-28T00:52:00.559Z,0
2016-11-28T00:53:00.792Z,0
2016-11-28T00:54:00.355Z,0
2016-11-28T00:55:00.281Z,0
2016-11-28T00:56:00.884Z,0
2016-11-28T00:57:00.581Z,0
2016-11-28T00:58:01.225Z,0
2016-11-28T00:59:00.365Z,0
2016-11-28T01:00:00.605Z,0
2016-11-28T01:01:00.737Z,0
2016-11-28T01:02:00.660Z,0
2016-11-28T01:03:05.148Z,0
2016-11-28T01:04:00.368Z,0
2016-11-28T01:05:00.728Z,0
2016-11-28T01:06:01.383Z,0
2016-11-28T01:07:01.936Z,0
2016-11-28T01:08:00.610Z,0
2016-11-28T01:09:00.525Z,0
2016-11-28T01:10:00.616Z,0
2016-11-28T01:11:00.726Z,0
2016-11-28T01:12:00.839Z,0
2016-11-28T01:13:01.195Z,0
2016-11-28T01:14:00.919Z,0
2016-11-28T01:15:01.809Z,0
2016-11-28T01:16:01.090Z,0
2016-11-28T01:17:01.555Z,0
2016-11-28T01:18:00.666Z,0
2016-11-28T01:19:00.725Z,0
2016-11-28T01:20:00.927Z,0
2016-11-28T01:21:01.156Z,0
2016-11-28T01:22:00.962Z,0
2016-11-28T01:23:00.961Z,0
2016-11-28T01:24:00.871Z,0
2016-11-28T01:25:00.263Z,0
2016-11-28T01:26:00.609Z,0
2016-11-28T01:27:01.001Z,0
2016-11-28T01:28:00.525Z,0
2016-11-28T01:29:00.707Z,0
2016-11-28T01:30:00.662Z,0
2016-11-28T01:31:01.063Z,0
2016-11-28T01:32:00.501Z,0
2016-11-28T01:33:00.572Z,0
2016-11-28T01:34:00.472Z,0
2016-11-28T01:35:00.764Z,0
2016-11-28T01:36:00.514Z,0
2016-11-28T01:37:00.616Z,0
2016-11-28T01:38:00.359Z,0
2016-11-28T01:39:00.624Z,0
2016-11-28T01:40:00.840Z,0
2016-11-28T01:41:00.900Z,0
2016-11-28T01:42:00.686Z,0
2016-11-28T01:43:00.569Z,0
2016-11-28T01:44:00.493Z,0
2016-11-28T01:45:00.534Z,0
2016-11-28T01:46:00.902Z,0
2016-11-28T01:47:00.869Z,0
2016-11-28T01:48:00.502Z,0
2016-11-28T01:49:00.304Z,0
2016-11-28T01:50:00.798Z,0
2016-11-28T01:51:02.053Z,0
2016-11-28T01:52:01.517Z,0
2016-11-28T01:53:00.859Z,0
2016-11-28T01:54:01.962Z,0
2016-11-28T01:55:00.832Z,0
2016-11-28T01:56:01.515Z,0
2016-11-28T01:57:01.138Z,0
2016-11-28T01:58:00.586Z,0
2016-11-28T01:59:01.367Z,0
2016-11-28T02:00:01.196Z,0
2016-11-28T02:01:01.895Z,0
2016-11-28T02:02:01.731Z,0
2016-11-28T02:03:00.595Z,0
2016-11-28T02:04:00.651Z,0
2016-11-28T02:05:00.934Z,0
2016-11-28T02:06:00.890Z,0
2016-11-28T02:07:01.153Z,0
2016-11-28T02:08:01.118Z,0
2016-11-28T02:09:00.789Z,0
2016-11-28T02:10:00.796Z,0
2016-11-28T02:11:00.938Z,0
2016-11-28T02:13:06.098Z,0
2016-11-28T02:13:18.743Z,0
2016-11-28T02:14:18.380Z,0
2016-11-28T02:15:19.142Z,0
2016-11-28T02:16:18.751Z,0
2016-11-28T02:17:19.123Z,0
2016-11-28T02:18:18.361Z,0
2016-11-28T02:19:18.771Z,0
2016-11-28T02:20:18.227Z,0
2016-11-28T02:23:25.573Z,0
2016-11-28T02:23:38.355Z,0
2016-11-28T02:24:37.674Z,0
2016-11-28T02:25:38.203Z,0
2016-11-28T02:26:38.603Z,0
2016-11-28T02:27:38.379Z,0
2016-11-28T02:28:38.073Z,0
2016-11-28T02:29:37.758Z,0
2016-11-28T02:30:37.666Z,0
2016-11-28T02:31:37.463Z,0
2016-11-28T02:32:39.384Z,0
2016-11-28T02:33:37.724Z,0
2016-11-28T02:34:37.531Z,0
2016-11-28T02:35:37.498Z,0
2016-11-28T02:36:37.372Z,0
2016-11-28T02:37:38.009Z,0
2016-11-28T02:38:37.448Z,0
2016-11-28T02:39:38.376Z,0
2016-11-28T02:40:37.464Z,0
2016-11-28T02:41:37.899Z,0
2016-11-28T02:42:38.148Z,0
2016-11-28T02:43:37.940Z,0
2016-11-28T02:44:37.467Z,0
2016-11-28T02:45:37.445Z,0
2016-11-28T02:46:37.882Z,0
2016-11-28T02:47:37.949Z,0
2016-11-28T02:48:38.096Z,0
2016-11-28T02:49:38.287Z,0
2016-11-28T02:50:37.416Z,0
2016-11-28T02:51:38.219Z,0
2016-11-28T02:52:39.384Z,0
2016-11-28T02:53:38.497Z,0
2016-11-28T02:54:38.102Z,0
2016-11-28T02:55:37.980Z,0
2016-11-28T02:56:37.531Z,0
2016-11-28T02:57:37.945Z,0
2016-11-28T02:58:38.544Z,0
2016-11-28T02:59:37.692Z,0
2016-11-28T03:00:38.060Z,0
2016-11-28T03:01:38.395Z,0
2016-11-28T03:02:37.552Z,0
2016-11-28T03:03:37.663Z,0
2016-11-28T03:04:37.474Z,0
2016-11-28T03:05:37.745Z,0
2016-11-28T03:06:37.733Z,0
2016-11-28T03:07:37.768Z,0
2016-11-28T03:08:38.695Z,0
2016-11-28T03:09:37.928Z,0
2016-11-28T03:10:37.941Z,0
2016-11-28T03:11:38.180Z,0
2016-11-28T03:12:37.799Z,0
2016-11-28T03:13:37.975Z,0
2016-11-28T03:14:38.550Z,0
2016-11-28T03:15:38.129Z,0
2016-11-28T03:16:38.236Z,0
2016-11-28T03:17:37.566Z,0
2016-11-28T03:18:37.937Z,0
2016-11-28T03:19:38.343Z,0
2016-11-28T03:20:37.953Z,0
2016-11-28T03:21:37.734Z,0
2016-11-28T03:22:37.848Z,0
2016-11-28T03:23:37.973Z,0
2016-11-28T03:24:37.337Z,0
2016-11-28T03:25:37.374Z,0
2016-11-28T03:26:37.627Z,0
2016-11-28T03:27:37.794Z,0
2016-11-28T03:28:38.176Z,0
2016-11-28T03:29:37.684Z,0
2016-11-28T03:30:37.864Z,0
2016-11-28T03:31:38.305Z,0
2016-11-28T03:32:37.761Z,0
2016-11-28T03:33:37.588Z,0
2016-11-28T03:34:37.364Z,0
2016-11-28T03:35:37.892Z,0
2016-11-28T03:36:37.727Z,0
2016-11-28T03:37:37.892Z,0
2016-11-28T03:38:37.427Z,0
2016-11-28T03:39:37.862Z,0
2016-11-28T03:40:37.510Z,0
2016-11-28T03:41:38.030Z,0
2016-11-28T03:42:37.667Z,0
2016-11-28T03:43:38.031Z,0
2016-11-28T03:44:37.971Z,0
2016-11-28T03:45:37.842Z,0
2016-11-28T03:46:38.354Z,0
2016-11-28T03:47:37.644Z,0
2016-11-28T03:48:37.657Z,0
2016-11-28T03:49:38.066Z,0
2016-11-28T03:50:38.637Z,0
2016-11-28T03:51:37.874Z,0
2016-11-28T03:52:37.642Z,0
2016-11-28T03:53:37.886Z,0
2016-11-28T03:54:38.428Z,0
2016-11-28T03:55:38.807Z,0
2016-11-28T03:56:38.381Z,0
2016-11-28T03:57:38.033Z,0
2016-11-28T03:58:37.795Z,0
2016-11-28T03:59:38.280Z,0
2016-11-28T04:00:37.841Z,0
2016-11-28T04:01:38.299Z,0
2016-11-28T04:02:39.385Z,0
2016-11-28T04:03:38.460Z,0
2016-11-28T04:04:38.960Z,0
2016-11-28T04:05:38.444Z,0
2016-11-28T04:06:38.943Z,0
2016-11-28T04:07:38.479Z,0
2016-11-28T04:08:39.345Z,0
2016-11-28T04:09:37.494Z,0
2016-11-28T04:10:38.946Z,0
2016-11-28T04:11:38.403Z,0
2016-11-28T04:12:37.904Z,0
2016-11-28T04:13:38.374Z,0
2016-11-28T04:14:37.493Z,0
2016-11-28T04:15:38.204Z,0
2016-11-28T04:16:37.543Z,0
2016-11-28T04:17:37.903Z,0
2016-11-28T04:18:37.596Z,0
2016-11-28T04:19:37.615Z,0
2016-11-28T04:20:37.915Z,0
2016-11-28T04:21:37.555Z,0
2016-11-28T04:22:38.184Z,0
2016-11-28T04:23:37.707Z,0
2016-11-28T04:24:37.686Z,0
2016-11-28T04:25:38.456Z,0
2016-11-28T04:26:38.253Z,0
2016-11-28T04:27:39.458Z,0
2016-11-28T04:28:40.133Z,0
2016-11-28T04:29:38.037Z,0
2016-11-28T04:30:38.553Z,0
2016-11-28T04:31:39.070Z,0
2016-11-28T04:32:39.257Z,0
2016-11-28T04:33:39.022Z,0
2016-11-28T04:34:40.062Z,0
2016-11-28T04:35:40.554Z,0
2016-11-28T04:36:40.952Z,0
2016-11-28T04:37:39.843Z,0
2016-11-28T04:38:40.038Z,0
2016-11-28T04:39:41.141Z,0
2016-11-28T04:40:42.053Z,0
2016-11-28T04:41:40.470Z,0
2016-11-28T04:42:40.096Z,0
2016-11-28T04:43:40.225Z,0
2016-11-28T04:44:39.894Z,0
2016-11-28T04:45:40.803Z,0
2016-11-28T04:46:40.061Z,0
2016-11-28T04:47:40.228Z,0
2016-11-28T04:48:40.987Z,0
2016-11-28T04:49:41.151Z,0
2016-11-28T04:50:39.411Z,0
2016-11-28T04:51:40.506Z,0
2016-11-28T04:52:39.781Z,0
2016-11-28T04:53:39.254Z,0
2016-11-28T04:54:40.424Z,0
2016-11-28T04:55:39.462Z,0
2016-11-28T04:56:39.801Z,0
2016-11-28T04:57:40.484Z,0
2016-11-28T04:58:39.204Z,0
2016-11-28T04:59:39.190Z,0
2016-11-28T05:00:38.881Z,0
2016-11-28T05:01:39.116Z,0
2016-11-28T05:02:39.827Z,0
2016-11-28T05:03:40.200Z,0
2016-11-28T05:04:40.139Z,0
2016-11-28T05:05:39.774Z,0
2016-11-28T05:06:39.082Z,0
2016-11-28T05:07:39.126Z,0
2016-11-28T05:08:39.977Z,0
2016-11-28T05:09:40.130Z,0
2016-11-28T05:10:38.795Z,0
2016-11-28T05:11:38.922Z,0
2016-11-28T05:12:39.075Z,0
2016-11-28T05:13:40.452Z,0
2016-11-28T05:14:38.646Z,0
2016-11-28T05:15:39.190Z,0
2016-11-28T05:16:38.645Z,0
2016-11-28T05:17:39.982Z,0
2016-11-28T05:18:38.962Z,0
2016-11-28T05:19:39.068Z,0
2016-11-28T05:20:39.027Z,0
2016-11-28T05:21:39.910Z,0
2016-11-28T05:22:38.594Z,0
2016-11-28T05:23:39.317Z,0
2016-11-28T05:24:39.176Z,0
2016-11-28T05:25:37.978Z,0
2016-11-28T05:26:38.515Z,0
2016-11-28T05:27:38.212Z,0
2016-11-28T05:28:37.992Z,0
2016-11-28T05:29:37.711Z,0
2016-11-28T05:30:38.623Z,0
2016-11-28T05:31:38.007Z,0
2016-11-28T05:32:37.804Z,0
2016-11-28T05:33:38.375Z,0
2016-11-28T05:34:38.643Z,0
2016-11-28T05:35:38.611Z,0
2016-11-28T05:36:38.429Z,0
2016-11-28T05:37:38.250Z,0
2016-11-28T05:38:38.670Z,0
2016-11-28T05:39:38.972Z,0
2016-11-28T05:40:37.811Z,0
2016-11-28T05:41:38.265Z,0
2016-11-28T05:42:38.901Z,0
2016-11-28T05:43:39.248Z,0
2016-11-28T05:44:37.994Z,0
2016-11-28T05:45:39.438Z,0
2016-11-28T05:46:39.932Z,0
2016-11-28T05:47:38.902Z,0
2016-11-28T05:48:38.629Z,0
2016-11-28T05:49:38.557Z,0
2016-11-28T05:50:38.614Z,0
2016-11-28T05:51:39.045Z,0
2016-11-28T05:52:38.403Z,0
2016-11-28T05:53:38.631Z,0
2016-11-28T05:54:38.935Z,0
2016-11-28T05:55:38.506Z,0
2016-11-28T05:56:38.480Z,0
2016-11-28T05:57:39.335Z,0
2016-11-28T05:58:40.377Z,0
2016-11-28T05:59:39.061Z,0
2016-11-28T06:00:38.969Z,0
2016-11-28T06:01:39.640Z,0
2016-11-28T06:02:41.500Z,0
2016-11-28T06:03:38.922Z,0
2016-11-28T06:04:40.101Z,0
2016-11-28T06:05:39.476Z,0
2016-11-28T06:06:39.183Z,0
2016-11-28T06:07:38.293Z,0
2016-11-28T06:08:39.543Z,0
2016-11-28T06:09:39.259Z,0
2016-11-28T06:10:38.276Z,0
2016-11-28T06:11:39.129Z,0
2016-11-28T06:12:39.089Z,0
2016-11-28T06:13:39.623Z,0
2016-11-28T06:14:39.135Z,0
2016-11-28T06:15:39.593Z,0
2016-11-28T06:16:39.659Z,0
2016-11-28T06:17:39.157Z,0
2016-11-28T06:18:38.198Z,0
2016-11-28T06:19:38.541Z,0
2016-11-28T06:20:38.976Z,0
2016-11-28T06:21:38.805Z,0
2016-11-28T06:22:38.831Z,0
2016-11-28T06:23:38.610Z,0
2016-11-28T06:24:38.935Z,0
2016-11-28T06:25:39.491Z,0
2016-11-28T06:26:39.177Z,0
2016-11-28T06:27:39.228Z,0
2016-11-28T06:28:39.006Z,0
2016-11-28T06:29:40.172Z,0
2016-11-28T06:30:40.056Z,0
2016-11-28T06:31:39.686Z,0
2016-11-28T06:32:39.620Z,0
2016-11-28T06:33:39.505Z,0
2016-11-28T06:34:39.087Z,0
2016-11-28T06:35:38.810Z,0
2016-11-28T06:36:39.623Z,0
2016-11-28T06:37:40.276Z,0
2016-11-28T06:38:38.973Z,0
2016-11-28T06:39:39.113Z,0
2016-11-28T06:40:40.242Z,0
2016-11-28T06:41:40.514Z,0
2016-11-28T06:42:38.739Z,0
2016-11-28T06:43:39.272Z,0
2016-11-28T06:44:38.675Z,0
2016-11-28T06:45:38.943Z,0
2016-11-28T06:46:38.704Z,0
2016-11-28T06:47:38.677Z,0
2016-11-28T06:48:38.943Z,0
2016-11-28T06:49:40.063Z,0
2016-11-28T06:50:39.695Z,0
2016-11-28T06:51:39.290Z,0
2016-11-28T06:52:40.894Z,0
2016-11-28T06:53:39.176Z,0
2016-11-28T06:54:40.125Z,0
2016-11-28T06:55:38.688Z,0
2016-11-28T06:56:37.857Z,0
2016-11-28T06:57:39.257Z,0
2016-11-28T06:58:38.500Z,0
2016-11-28T06:59:38.589Z,0
2016-11-28T07:00:39.128Z,0
2016-11-28T07:01:38.932Z,0
2016-11-28T07:02:41.773Z,0
2016-11-28T07:03:39.670Z,5
2016-11-28T07:04:39.812Z,5
2016-11-28T07:05:39.379Z,5
2016-11-28T07:06:39.717Z,5
2016-11-28T07:07:39.706Z,5
2016-11-28T07:08:40.603Z,5
2016-11-28T07:09:40.193Z,5
2016-11-28T07:10:39.403Z,5
2016-11-28T07:11:40.197Z,10
2016-11-28T07:12:41.627Z,10
2016-11-28T07:13:40.860Z,10
2016-11-28T07:14:39.065Z,10
2016-11-28T07:15:38.632Z,10
2016-11-28T07:16:40.030Z,10
2016-11-28T07:17:39.422Z,15
2016-11-28T07:18:39.076Z,15
2016-11-28T07:19:38.505Z,15
2016-11-28T07:20:39.003Z,15
2016-11-28T07:21:38.704Z,20
2016-11-28T07:22:38.737Z,20
2016-11-28T07:23:39.506Z,20
2016-11-28T07:24:39.943Z,20
2016-11-28T07:25:39.931Z,25
2016-11-28T07:26:39.542Z,25
2016-11-28T07:27:40.056Z,25
2016-11-28T07:28:39.409Z,30
2016-11-28T07:29:38.999Z,30
2016-11-28T07:30:41.646Z,30
2016-11-28T07:31:40.626Z,35
2016-11-28T07:32:41.283Z,35
2016-11-28T07:33:39.559Z,35
2016-11-28T07:34:39.907Z,40
2016-11-28T07:35:38.273Z,40
2016-11-28T07:36:39.452Z,40
2016-11-28T07:37:39.190Z,45
2016-11-28T07:38:39.195Z,45
2016-11-28T07:39:39.507Z,45
2016-11-28T07:40:39.059Z,50
2016-11-28T07:41:38.715Z,50
2016-11-28T07:42:39.096Z,50
2016-11-28T07:43:38.988Z,55
2016-11-28T07:44:39.253Z,55
2016-11-28T07:45:40.044Z,55
2016-11-28T07:46:39.136Z,60
2016-11-28T07:47:38.851Z,60
2016-11-28T07:48:39.495Z,65
2016-11-28T07:49:39.422Z,65
2016-11-28T07:50:38.965Z,65
2016-11-28T07:51:39.066Z,70
2016-11-28T07:52:39.129Z,70
2016-11-28T07:53:39.518Z,75
2016-11-28T07:54:39.220Z,80
2016-11-28T07:55:39.273Z,85
2016-11-28T07:56:39.189Z,85
2016-11-28T07:57:38.800Z,85
2016-11-28T07:58:41.079Z,90
2016-11-28T07:59:40.026Z,90
2016-11-28T08:00:39.193Z,95
2016-11-28T08:01:39.115Z,90
2016-11-28T08:02:39.599Z,100
2016-11-28T08:03:40.680Z,95
2016-11-28T08:04:40.927Z,95
2016-11-28T08:05:41.753Z,100
2016-11-28T08:06:40.398Z,105
2016-11-28T08:07:38.483Z,100
2016-11-28T08:08:38.223Z,105
2016-11-28T08:09:38.924Z,110
2016-11-28T08:10:39.266Z,110
2016-11-28T08:11:39.188Z,105
2016-11-28T08:12:39.189Z,115
2016-11-28T08:13:38.667Z,115
2016-11-28T08:14:39.654Z,110
2016-11-28T08:15:39.287Z,110
2016-11-28T08:16:39.277Z,115
2016-11-28T08:17:40.188Z,110
2016-11-28T08:18:39.126Z,120
2016-11-28T08:19:39.097Z,120
2016-11-28T08:20:39.767Z,120
2016-11-28T08:21:38.564Z,125
2016-11-28T08:22:38.779Z,125
2016-11-28T08:23:38.698Z,130
2016-11-28T08:24:39.201Z,135
2016-11-28T08:25:38.338Z,135
2016-11-28T08:26:39.029Z,140
2016-11-28T08:27:38.496Z,140
2016-11-28T08:28:38.757Z,140
2016-11-28T08:29:38.136Z,145
2016-11-28T08:30:39.218Z,145
2016-11-28T08:31:39.157Z,145
2016-11-28T08:32:38.878Z,145
2016-11-28T08:33:39.003Z,145
2016-11-28T08:34:39.545Z,150
2016-11-28T08:35:38.556Z,150
2016-11-28T08:36:39.391Z,150
2016-11-28T08:37:38.947Z,155
2016-11-28T08:38:39.037Z,155
2016-11-28T08:39:39.771Z,155
2016-11-28T08:40:39.258Z,155
2016-11-28T08:41:39.445Z,155
2016-11-28T08:42:38.932Z,155
2016-11-28T08:43:39.491Z,160
2016-11-28T08:44:39.841Z,160
2016-11-28T08:45:41.471Z,165
2016-11-28T08:46:39.755Z,160
2016-11-28T08:47:40.707Z,165
2016-11-28T08:48:40.378Z,165
2016-11-28T08:49:42.749Z,165
2016-11-28T08:50:39.140Z,170
2016-11-28T08:51:38.698Z,170
2016-11-28T08:52:41.037Z,175
2016-11-28T08:53:39.832Z,175
2016-11-28T08:54:40.119Z,175
2016-11-28T08:55:42.414Z,180
2016-11-28T08:56:41.334Z,180
2016-11-28T08:57:42.364Z,185
2016-11-28T08:58:40.390Z,185
2016-11-28T08:59:40.125Z,185
2016-11-28T09:00:39.588Z,190
2016-11-28T09:01:41.165Z,190
2016-11-28T09:02:40.100Z,195
2016-11-28T09:03:40.299Z,195
2016-11-28T09:04:39.614Z,200
2016-11-28T09:05:38.885Z,200
2016-11-28T09:06:39.417Z,205
2016-11-28T09:07:39.382Z,200
2016-11-28T09:08:39.262Z,200
2016-11-28T09:09:38.789Z,200
2016-11-28T09:10:38.831Z,205
2016-11-28T09:11:39.363Z,205
2016-11-28T09:12:39.527Z,205
2016-11-28T09:13:44.170Z,210
2016-11-28T09:14:38.672Z,215
2016-11-28T09:15:38.540Z,215
2016-11-28T09:16:38.639Z,220
2016-11-28T09:17:38.684Z,220
2016-11-28T09:18:39.530Z,225
2016-11-28T09:19:39.930Z,225
2016-11-28T09:20:39.866Z,225
2016-11-28T09:21:39.681Z,225
2016-11-28T09:22:40.098Z,230
2016-11-28T09:23:40.029Z,235
2016-11-28T09:24:41.057Z,235
2016-11-28T09:25:39.586Z,235
2016-11-28T09:26:39.054Z,235
2016-11-28T09:27:38.831Z,235
2016-11-28T09:28:38.794Z,240
2016-11-28T09:29:39.337Z,240
2016-11-28T09:30:38.539Z,240
2016-11-28T09:31:39.406Z,240
2016-11-28T09:32:38.248Z,245
2016-11-28T09:33:38.384Z,245
2016-11-28T09:34:39.322Z,250
2016-11-28T09:35:39.704Z,250
2016-11-28T09:36:40.259Z,255
2016-11-28T09:37:39.054Z,255
2016-11-28T09:38:38.675Z,255
2016-11-28T09:39:39.788Z,255
2016-11-28T09:40:40.105Z,255
2016-11-28T09:41:38.616Z,260
2016-11-28T09:42:38.796Z,260
2016-11-28T09:43:38.439Z,260
2016-11-28T09:44:38.160Z,265
2016-11-28T09:45:38.609Z,265
2016-11-28T09:46:38.000Z,270
2016-11-28T09:47:38.703Z,275
2016-11-28T09:48:40.489Z,275
2016-11-28T09:49:39.552Z,280
2016-11-28T09:50:39.601Z,275
2016-11-28T09:51:41.324Z,280
2016-11-28T09:52:39.200Z,280
2016-11-28T09:53:39.456Z,280
2016-11-28T09:54:41.172Z,285
2016-11-28T09:55:38.815Z,280
2016-11-28T09:56:39.259Z,285
2016-11-28T09:57:39.350Z,285
2016-11-28T09:58:39.411Z,280
2016-11-28T09:59:39.039Z,280
2016-11-28T10:00:40.116Z,275
2016-11-28T10:01:39.323Z,275
2016-11-28T10:02:39.673Z,275
2016-11-28T10:03:39.545Z,270
2016-11-28T10:04:39.194Z,275
2016-11-28T10:05:39.971Z,270
2016-11-28T10:06:40.177Z,270
2016-11-28T10:07:39.905Z,275
2016-11-28T10:08:40.798Z,275
2016-11-28T10:09:40.342Z,275
2016-11-28T10:10:40.633Z,280
2016-11-28T10:11:39.800Z,285
2016-11-28T10:12:39.734Z,280
2016-11-28T10:13:40.186Z,280
2016-11-28T10:14:39.185Z,275
2016-11-28T10:15:39.987Z,270
2016-11-28T10:16:40.963Z,270
2016-11-28T10:17:39.268Z,265
2016-11-28T10:18:39.908Z,265
2016-11-28T10:19:39.240Z,265
2016-11-28T10:20:39.518Z,265
2016-11-28T10:21:39.693Z,265
2016-11-28T10:22:39.348Z,270
2016-11-28T10:23:39.827Z,270
2016-11-28T10:24:40.683Z,270
2016-11-28T10:25:39.292Z,270
2016-11-28T10:26:39.246Z,270
2016-11-28T10:27:39.397Z,270
2016-11-28T10:28:40.090Z,270
2016-11-28T10:29:40.043Z,270
2016-11-28T10:30:38.883Z,270
2016-11-28T10:31:38.688Z,270
2016-11-28T10:32:39.806Z,270
2016-11-28T10:33:39.727Z,270
2016-11-28T10:34:40.144Z,270
2016-11-28T10:35:40.075Z,275
2016-11-28T10:36:38.535Z,275
2016-11-28T10:37:39.056Z,275
2016-11-28T10:38:40.392Z,270
2016-11-28T10:39:42.484Z,270
2016-11-28T10:40:40.464Z,275
2016-11-28T10:41:40.903Z,275
2016-11-28T10:42:40.230Z,275
2016-11-28T10:43:39.089Z,280
2016-11-28T10:44:39.136Z,280
2016-11-28T10:45:38.732Z,280
2016-11-28T10:46:38.806Z,285
2016-11-28T10:47:38.827Z,285
2016-11-28T10:48:39.384Z,290
2016-11-28T10:49:38.880Z,290
2016-11-28T10:50:38.951Z,290
2016-11-28T10:51:38.794Z,290
2016-11-28T10:52:39.183Z,285
2016-11-28T10:53:39.105Z,285
2016-11-28T10:54:39.369Z,285
2016-11-28T10:55:38.943Z,285
2016-11-28T10:56:38.865Z,295
2016-11-28T10:57:39.733Z,300
2016-11-28T10:58:39.332Z,300
2016-11-28T10:59:39.608Z,320
2016-11-28T11:00:39.471Z,315
2016-11-28T11:01:40.119Z,315
2016-11-28T11:02:39.432Z,330
2016-11-28T11:03:39.798Z,330
2016-11-28T11:04:39.410Z,345
2016-11-28T11:05:38.938Z,375
2016-11-28T11:06:39.857Z,390
2016-11-28T11:07:39.110Z,445
2016-11-28T11:08:39.848Z,460
2016-11-28T11:09:40.278Z,460
2016-11-28T11:10:40.387Z,465
2016-11-28T11:11:39.017Z,470
2016-11-28T11:12:40.646Z,465
2016-11-28T11:13:39.419Z,475
2016-11-28T11:14:39.268Z,475
2016-11-28T11:15:39.372Z,480
2016-11-28T11:16:39.392Z,480
2016-11-28T11:17:39.393Z,480
2016-11-28T11:18:39.828Z,475
2016-11-28T11:19:39.870Z,470
2016-11-28T11:20:39.607Z,460
2016-11-28T11:21:39.072Z,460
2016-11-28T11:22:39.557Z,450
2016-11-28T11:23:40.212Z,435
2016-11-28T11:24:39.750Z,425
2016-11-28T11:25:40.272Z,415
2016-11-28T11:26:39.209Z,395
2016-11-28T11:27:39.753Z,395
2016-11-28T11:28:39.283Z,390
2016-11-28T11:29:39.400Z,390
2016-11-28T11:30:39.397Z,380
2016-11-28T11:31:38.992Z,405
2016-11-28T11:32:39.548Z,430
2016-11-28T11:33:39.921Z,425
2016-11-28T11:34:39.871Z,415
2016-11-28T11:35:40.749Z,405
2016-11-28T11:36:40.435Z,390
2016-11-28T11:37:39.664Z,370
2016-11-28T11:38:39.861Z,380
2016-11-28T11:39:41.187Z,380
2016-11-28T11:40:39.340Z,365
2016-11-28T11:41:40.323Z,365
2016-11-28T11:42:39.809Z,380
2016-11-28T11:43:39.732Z,375
2016-11-28T11:44:39.488Z,370
2016-11-28T11:45:39.252Z,365
2016-11-28T11:46:39.295Z,370
2016-11-28T11:47:40.604Z,390
2016-11-28T11:48:39.120Z,405
2016-11-28T11:49:39.218Z,425
2016-11-28T11:50:39.468Z,445
2016-11-28T11:51:39.067Z,435
2016-11-28T11:52:39.526Z,460
2016-11-28T11:53:39.064Z,445
2016-11-28T11:54:39.406Z,460
2016-11-28T11:55:39.962Z,460
2016-11-28T11:56:39.431Z,455
2016-11-28T11:57:39.787Z,450
2016-11-28T11:58:40.087Z,450
2016-11-28T11:59:39.538Z,440
2016-11-28T12:00:39.434Z,445
2016-11-28T12:01:39.795Z,455
2016-11-28T12:02:39.545Z,420
2016-11-28T12:03:39.969Z,410
2016-11-28T12:04:39.582Z,410
2016-11-28T12:05:39.233Z,415
2016-11-28T12:06:39.729Z,375
2016-11-28T12:07:39.727Z,365
2016-11-28T12:08:39.728Z,360
2016-11-28T12:09:39.507Z,365
2016-11-28T12:10:39.612Z,325
2016-11-28T12:11:40.364Z,315
2016-11-28T12:12:39.760Z,320
2016-11-28T12:13:39.724Z,325
2016-11-28T12:18:56.910Z,295
2016-11-28T12:19:10.519Z,295
2016-11-28T12:20:10.287Z,290
2016-11-28T12:21:10.400Z,295
2016-11-28T12:22:10.315Z,305
2016-11-28T12:23:10.663Z,300
2016-11-28T12:24:10.467Z,330
2016-11-28T12:25:10.914Z,340
2016-11-28T12:26:11.432Z,335
2016-11-28T12:27:10.504Z,335
2016-11-28T12:28:11.493Z,335
2016-11-28T12:29:12.970Z,340
2016-11-28T12:30:10.935Z,355
2016-11-28T12:31:10.859Z,365
2016-11-28T12:32:10.020Z,365
2016-11-28T12:33:10.572Z,360
2016-11-28T12:34:10.799Z,350
2016-11-28T12:35:10.329Z,350
2016-11-28T12:36:10.400Z,345
2016-11-28T12:37:10.549Z,345
2016-11-28T12:38:10.606Z,345
2016-11-28T12:39:10.666Z,335
2016-11-28T12:40:10.650Z,330
2016-11-28T12:41:10.805Z,335
2016-11-28T12:42:10.793Z,330
2016-11-28T12:43:10.424Z,325
2016-11-28T12:44:12.508Z,310
2016-11-28T12:45:11.897Z,300
2016-11-28T12:46:11.005Z,290
2016-11-28T12:47:10.580Z,285
2016-11-28T12:48:10.656Z,275
2016-11-28T12:49:11.310Z,275
2016-11-28T12:50:11.162Z,275
2016-11-28T12:51:10.876Z,280
2016-11-28T12:52:11.082Z,290
2016-11-28T12:53:11.090Z,290
2016-11-28T12:54:11.196Z,295
2016-11-28T12:55:10.726Z,295
2016-11-28T12:56:10.896Z,280
2016-11-28T12:57:10.999Z,280
2016-11-28T12:58:11.831Z,285
2016-11-28T12:59:10.520Z,290
2016-11-28T13:00:10.519Z,295
2016-11-28T13:01:10.429Z,295
2016-11-28T13:02:11.086Z,295
2016-11-28T13:03:11.201Z,295
2016-11-28T13:04:10.526Z,290
2016-11-28T13:05:10.775Z,285
2016-11-28T13:06:10.628Z,280
2016-11-28T13:07:11.242Z,280
2016-11-28T13:08:11.905Z,280
2016-11-28T13:09:11.051Z,275
2016-11-28T13:10:11.446Z,270
2016-11-28T13:11:12.028Z,265
2016-11-28T13:12:10.616Z,260
2016-11-28T13:13:10.546Z,260
2016-11-28T13:14:10.132Z,260
2016-11-28T13:15:10.537Z,250
2016-11-28T13:16:10.789Z,245
2016-11-28T13:17:09.634Z,240
2016-11-28T13:18:10.601Z,240
2016-11-28T13:19:11.106Z,235
2016-11-28T13:20:10.511Z,225
2016-11-28T13:21:10.356Z,220
2016-11-28T13:22:10.819Z,215
2016-11-28T13:23:10.382Z,215
2016-11-28T13:24:10.416Z,210
2016-11-28T13:25:10.040Z,205
2016-11-28T13:26:10.170Z,205
2016-11-28T13:27:10.458Z,200
2016-11-28T13:28:09.918Z,200
2016-11-28T13:29:10.007Z,195
2016-11-28T13:30:11.315Z,195
2016-11-28T13:31:10.973Z,195
2016-11-28T13:32:10.016Z,190
2016-11-28T13:33:10.054Z,190
2016-11-28T13:34:09.832Z,190
2016-11-28T13:35:09.667Z,190
2016-11-28T13:36:09.976Z,190
2016-11-28T13:37:09.342Z,185
2016-11-28T13:38:09.285Z,185
2016-11-28T13:39:10.472Z,185
2016-11-28T13:40:09.926Z,185
2016-11-28T13:41:10.474Z,180
2016-11-28T13:42:10.540Z,180
2016-11-28T13:43:10.310Z,180
2016-11-28T13:44:10.278Z,180
2016-11-28T13:45:09.845Z,180
2016-11-28T13:46:10.209Z,175
2016-11-28T13:47:09.705Z,175
2016-11-28T13:48:09.653Z,175
2016-11-28T13:49:10.863Z,175
2016-11-28T13:50:10.772Z,175
2016-11-28T13:51:10.793Z,170
2016-11-28T13:52:10.202Z,170
2016-11-28T13:53:10.539Z,165
2016-11-28T13:54:10.157Z,165
2016-11-28T13:55:10.136Z,165
2016-11-28T13:56:09.837Z,160
2016-11-28T13:57:10.841Z,160
2016-11-28T13:58:10.708Z,155
2016-11-28T13:59:10.724Z,155
2016-11-28T14:00:10.800Z,150
2016-11-28T14:01:10.613Z,150
2016-11-28T14:02:10.550Z,150
2016-11-28T14:03:11.152Z,150
2016-11-28T14:04:10.833Z,145
2016-11-28T14:05:10.053Z,145
2016-11-28T14:06:10.043Z,140
2016-11-28T14:07:10.210Z,140
2016-11-28T14:08:10.026Z,135
2016-11-28T14:09:10.745Z,135
2016-11-28T14:10:11.295Z,135
2016-11-28T14:11:11.038Z,130
2016-11-28T14:12:11.310Z,130
2016-11-28T14:13:10.974Z,130
2016-11-28T14:14:10.600Z,125
2016-11-28T14:15:12.020Z,125
2016-11-28T14:16:10.281Z,125
2016-11-28T14:17:10.770Z,125
2016-11-28T14:18:10.524Z,120
2016-11-28T14:19:11.903Z,120
2016-11-28T14:20:10.644Z,120
2016-11-28T14:21:09.727Z,120
2016-11-28T14:22:10.614Z,115